Terminal Aerodrome Forecast
Issued by NWS Wilmington, NC

Home | Current Version | Previous Version | Text Only | Print | Product List | Glossary On
Versions: 1 2 3 4 5 6 7 8 9 10 11 12 13 14 15 16
000
FTUS42 KILM 171938 AAA
TAFFLO
TAF AMD
KFLO 171938Z 1720/1818 32006KT 6SM -RA OVC040
     FM172100 34010KT 6SM -SHSN OVC015
      TEMPO 1721/1724 2SM -SN OVC008
     FM180100 33010KT P6SM SCT020=

USA.gov is the U.S. government's official web portal to all federal, state and local government web resources and services.